createdAt,value
2022-12-08T00:01:14.285Z,13.77
2022-12-08T00:04:16.081Z,12.45
2022-12-08T00:07:36.305Z,11.98
2022-12-08T00:10:48.873Z,11.25
2022-12-08T00:13:51.444Z,12.80
2022-12-08T00:16:53.789Z,11.23
2022-12-08T00:19:55.375Z,11.02
2022-12-08T00:22:56.830Z,11.85
2022-12-08T00:26:02.474Z,10.30
2022-12-08T00:29:04.786Z,11.00
2022-12-08T00:32:06.831Z,10.23
2022-12-08T00:35:08.707Z,11.15
2022-12-08T00:38:10.254Z,10.27
2022-12-08T00:41:18.163Z,10.93
2022-12-08T00:44:20.089Z,10.10
2022-12-08T00:47:24.791Z,10.63
2022-12-08T00:50:26.666Z,10.50
2022-12-08T00:53:28.213Z,10.60
2022-12-08T00:56:30.004Z,10.98
2022-12-08T00:59:31.709Z,10.10
2022-12-08T01:02:35.243Z,10.13
2022-12-08T01:05:36.847Z,9.77
2022-12-08T01:08:39.700Z,11.43
2022-12-08T01:11:41.490Z,8.98
2022-12-08T01:14:43.192Z,11.43
2022-12-08T01:17:44.787Z,10.23
2022-12-08T01:20:46.535Z,10.35
2022-12-08T01:23:48.139Z,11.63
2022-12-08T01:26:50.558Z,9.52
2022-12-08T01:29:52.090Z,10.93
2022-12-08T01:32:53.744Z,9.10
2022-12-08T01:35:55.986Z,11.00
2022-12-08T01:38:59.803Z,9.85
2022-12-08T01:42:01.320Z,9.50
2022-12-08T01:45:15.195Z,8.60
2022-12-08T01:48:27.180Z,10.40
2022-12-08T01:51:33.397Z,7.82
2022-12-08T01:54:41.665Z,10.00
2022-12-08T01:57:54.018Z,7.78
2022-12-08T02:00:55.710Z,8.63
2022-12-08T02:03:59.891Z,9.73
2022-12-08T02:07:07.754Z,7.28
2022-12-08T02:10:11.942Z,8.25
2022-12-08T02:13:17.607Z,8.07
2022-12-08T02:16:35.195Z,8.65
2022-12-08T02:19:57.971Z,7.50
2022-12-08T02:23:11.575Z,7.25
2022-12-08T02:26:24.769Z,6.28
2022-12-08T02:29:32.687Z,6.95
2022-12-08T02:32:37.191Z,7.35
2022-12-08T02:35:57.531Z,6.90
2022-12-08T02:39:11.215Z,7.20
2022-12-08T02:42:30.750Z,6.78
2022-12-08T02:45:39.771Z,5.93
2022-12-08T02:48:42.048Z,8.05
2022-12-08T02:51:43.667Z,7.00
2022-12-08T02:54:50.496Z,6.88
2022-12-08T02:58:05.603Z,7.28
2022-12-08T03:01:44.372Z,6.78
2022-12-08T03:05:03.762Z,7.57
2022-12-08T03:08:26.661Z,6.10
2022-12-08T03:11:44.401Z,8.27
2022-12-08T03:14:50.562Z,6.13
2022-12-08T03:17:57.080Z,5.10
2022-12-08T03:20:59.735Z,6.20
2022-12-08T03:24:04.301Z,6.00
2022-12-08T03:27:09.749Z,5.57
2022-12-08T03:30:11.830Z,6.57
2022-12-08T03:33:23.146Z,6.13
2022-12-08T03:36:25.812Z,4.93
2022-12-08T03:39:27.316Z,4.95
2022-12-08T03:42:28.875Z,6.03
2022-12-08T03:45:30.691Z,5.38
2022-12-08T03:48:32.201Z,7.03
2022-12-08T03:51:33.817Z,5.07
2022-12-08T03:54:35.325Z,6.50
2022-12-08T03:57:36.938Z,5.32
2022-12-08T04:00:38.550Z,4.85
2022-12-08T04:03:40.363Z,4.78
2022-12-08T04:06:41.947Z,4.90
2022-12-08T04:09:44.893Z,3.92
2022-12-08T04:12:46.419Z,5.13
2022-12-08T04:15:48.446Z,5.28
2022-12-08T04:18:50.086Z,4.55
2022-12-08T04:21:51.738Z,4.97
2022-12-08T04:24:53.288Z,4.65
2022-12-08T04:27:54.863Z,5.25
2022-12-08T04:30:56.551Z,4.63
2022-12-08T04:33:58.058Z,4.78
2022-12-08T04:36:59.575Z,6.95
2022-12-08T04:40:01.261Z,5.43
2022-12-08T04:43:02.962Z,5.15
2022-12-08T04:46:08.735Z,5.25
2022-12-08T04:49:10.455Z,5.00
2022-12-08T04:52:11.983Z,4.70
2022-12-08T04:55:13.678Z,6.15
2022-12-08T04:58:17.693Z,6.35
2022-12-08T05:01:19.284Z,6.03
2022-12-08T05:04:20.912Z,5.57
2022-12-08T05:07:22.365Z,5.25
2022-12-08T05:10:24.091Z,6.60
2022-12-08T05:13:25.615Z,5.00
2022-12-08T05:16:27.276Z,4.00
2022-12-08T05:19:28.745Z,4.82
2022-12-08T05:22:30.888Z,8.18
2022-12-08T05:25:32.404Z,4.60
2022-12-08T05:28:42.951Z,5.15
2022-12-08T05:31:44.891Z,5.18
2022-12-08T05:34:46.510Z,7.18
2022-12-08T05:37:48.051Z,6.28
2022-12-08T05:40:49.802Z,8.77
2022-12-08T05:43:51.381Z,7.45
2022-12-08T05:46:53.089Z,7.68
2022-12-08T05:49:54.707Z,12.20
2022-12-08T05:52:56.415Z,40.75
2022-12-08T05:55:58.011Z,26.83
2022-12-08T05:59:00.550Z,23.20
2022-12-08T06:02:02.349Z,14.98
2022-12-08T06:05:04.268Z,24.33
2022-12-08T06:08:05.884Z,21.45
2022-12-08T06:11:07.797Z,15.80
2022-12-08T06:14:12.242Z,20.40
2022-12-08T06:17:13.755Z,14.15
2022-12-08T06:20:15.349Z,15.13
2022-12-08T06:23:16.874Z,21.30
2022-12-08T06:26:18.967Z,18.30
2022-12-08T06:29:20.592Z,17.67
2022-12-08T06:32:27.272Z,14.48
2022-12-08T06:35:29.315Z,9.88
2022-12-08T06:38:31.269Z,11.18
2022-12-08T06:41:32.836Z,13.50
2022-12-08T06:44:34.441Z,14.32
2022-12-08T06:47:36.175Z,16.73
2022-12-08T06:50:37.659Z,12.43
2022-12-08T06:53:39.702Z,10.43
2022-12-08T06:56:41.399Z,10.25
2022-12-08T06:59:42.838Z,9.35
2022-12-08T07:02:44.510Z,6.72
2022-12-08T07:05:46.872Z,7.68
2022-12-08T07:08:48.661Z,7.60
2022-12-08T07:11:50.411Z,17.63
2022-12-08T07:14:52.085Z,11.05
2022-12-08T07:17:59.374Z,11.13
2022-12-08T07:21:07.550Z,9.05
2022-12-08T07:24:09.327Z,7.47
2022-12-08T07:27:10.934Z,9.82
2022-12-08T07:30:13.077Z,8.48
2022-12-08T07:33:14.972Z,9.50
2022-12-08T07:36:17.864Z,9.07
2022-12-08T07:39:25.776Z,8.85
2022-12-08T07:42:27.585Z,6.78
2022-12-08T07:45:31.673Z,9.60
2022-12-08T07:48:33.771Z,8.80
2022-12-08T07:51:35.374Z,11.48
2022-12-08T07:54:36.940Z,11.00
2022-12-08T07:57:38.569Z,28.50
2022-12-08T08:00:40.316Z,35.38
2022-12-08T08:03:41.934Z,17.02
2022-12-08T08:06:43.703Z,14.55
2022-12-08T08:09:45.826Z,9.90
2022-12-08T08:12:47.819Z,9.27
2022-12-08T08:15:49.616Z,11.10
2022-12-08T08:18:51.387Z,8.45
2022-12-08T08:21:53.052Z,7.68
2022-12-08T08:24:54.713Z,9.35
2022-12-08T08:27:56.618Z,6.63
2022-12-08T08:30:59.752Z,7.50
2022-12-08T08:34:06.497Z,8.40
2022-12-08T08:37:08.465Z,8.35
2022-12-08T08:40:10.370Z,13.23
2022-12-08T08:43:36.245Z,11.32
2022-12-08T08:46:39.865Z,10.43
2022-12-08T08:49:41.653Z,12.63
2022-12-08T08:52:43.203Z,10.02
2022-12-08T08:55:44.902Z,7.28
2022-12-08T08:58:50.468Z,7.72
2022-12-08T09:01:52.399Z,8.55
2022-12-08T09:04:54.734Z,8.15
2022-12-08T09:07:56.368Z,13.18
2022-12-08T09:10:57.892Z,14.93
2022-12-08T09:13:59.581Z,13.88
2022-12-08T09:17:01.196Z,12.15
2022-12-08T09:20:03.399Z,9.75
2022-12-08T09:23:05.372Z,10.45
2022-12-08T09:26:07.562Z,9.35
2022-12-08T09:29:10.277Z,6.90
2022-12-08T09:32:11.816Z,7.50
2022-12-08T09:35:13.699Z,6.75
2022-12-08T09:38:15.398Z,6.88
2022-12-08T09:41:24.526Z,7.95
2022-12-08T09:44:44.920Z,8.38
2022-12-08T09:48:10.750Z,7.97
2022-12-08T09:51:15.976Z,8.52
2022-12-08T09:54:32.455Z,9.65
2022-12-08T09:57:34.183Z,7.70
2022-12-08T10:00:35.931Z,8.20
2022-12-08T10:03:37.827Z,7.32
2022-12-08T10:07:00.000Z,11.00
2022-12-08T10:10:50.909Z,5.28
2022-12-08T10:14:16.847Z,7.22
2022-12-08T10:17:49.056Z,8.25
2022-12-08T10:20:52.060Z,6.25
2022-12-08T10:24:01.882Z,6.18
2022-12-08T10:27:05.415Z,7.57
2022-12-08T10:30:18.657Z,8.80
2022-12-08T10:33:22.551Z,11.38
2022-12-08T10:36:44.977Z,6.88
2022-12-08T10:39:46.893Z,8.27
2022-12-08T10:42:52.544Z,7.72
2022-12-08T10:45:54.778Z,12.15
2022-12-08T10:49:11.403Z,11.20
2022-12-08T10:52:23.827Z,12.05
2022-12-08T10:55:26.139Z,13.63
2022-12-08T10:58:35.722Z,12.75
2022-12-08T11:01:40.130Z,10.15
2022-12-08T11:04:42.008Z,12.75
2022-12-08T11:07:53.236Z,9.15
2022-12-08T11:10:55.181Z,10.23
2022-12-08T11:13:56.763Z,10.38
2022-12-08T11:17:09.072Z,9.88
2022-12-08T11:20:10.834Z,11.30
2022-12-08T11:23:22.822Z,8.73
2022-12-08T11:26:31.675Z,10.38
2022-12-08T11:29:35.343Z,9.52
2022-12-08T11:32:40.482Z,14.05
2022-12-08T11:35:45.831Z,12.73
2022-12-08T11:38:52.112Z,13.63
2022-12-08T11:41:56.607Z,15.13
2022-12-08T11:45:03.743Z,17.23
2022-12-08T11:48:19.431Z,18.90
2022-12-08T11:51:36.323Z,18.98
2022-12-08T11:54:57.348Z,17.73
2022-12-08T11:58:10.921Z,22.40
2022-12-08T12:01:21.303Z,23.13
2022-12-08T12:04:26.518Z,18.60
2022-12-08T12:08:10.398Z,21.90
2022-12-08T12:11:44.790Z,21.00
2022-12-08T12:15:08.263Z,24.17
2022-12-08T12:18:24.165Z,21.27
2022-12-08T12:21:43.483Z,19.48
2022-12-08T12:24:49.204Z,22.63
2022-12-08T12:27:57.202Z,19.95
2022-12-08T12:31:05.630Z,19.63
2022-12-08T12:34:32.146Z,22.40
2022-12-08T12:37:38.587Z,17.80
2022-12-08T12:40:41.991Z,22.25
2022-12-08T12:44:09.327Z,18.83
2022-12-08T12:47:13.327Z,19.60
2022-12-08T12:50:34.817Z,18.55
2022-12-08T12:53:36.215Z,17.65
2022-12-08T12:56:52.945Z,19.45
2022-12-08T12:59:55.882Z,17.70
2022-12-08T13:02:58.857Z,20.55
2022-12-08T13:06:00.966Z,18.15
2022-12-08T13:09:03.831Z,17.90
2022-12-08T13:12:12.775Z,16.08
2022-12-08T13:15:20.327Z,20.98
2022-12-08T13:18:27.115Z,17.10
2022-12-08T13:21:34.751Z,17.50
2022-12-08T13:24:36.431Z,18.98
2022-12-08T13:27:52.408Z,13.88
2022-12-08T13:30:56.181Z,15.55
2022-12-08T13:33:58.891Z,18.30
2022-12-08T13:37:00.440Z,17.50
2022-12-08T13:40:07.580Z,17.30
2022-12-08T13:43:24.604Z,15.02
2022-12-08T13:57:11.318Z,14.18
2022-12-08T14:00:20.677Z,11.18
2022-12-08T14:03:22.403Z,15.32
2022-12-08T14:06:31.330Z,13.80
2022-12-08T14:09:36.576Z,13.75
2022-12-08T14:12:39.659Z,19.65
2022-12-08T14:15:41.337Z,14.35
2022-12-08T14:18:42.946Z,20.15
2022-12-08T14:21:57.281Z,21.58
2022-12-08T14:24:59.063Z,18.10
2022-12-08T14:28:03.628Z,17.45
2022-12-08T14:31:05.182Z,14.32
2022-12-08T14:34:06.751Z,18.10
2022-12-08T14:37:12.943Z,14.90
2022-12-08T14:40:36.135Z,16.63
2022-12-08T14:43:37.797Z,13.27
2022-12-08T14:46:40.157Z,17.38
2022-12-08T14:49:42.045Z,19.75
2022-12-08T14:52:44.833Z,16.10
2022-12-08T14:55:48.226Z,15.07
2022-12-08T14:59:03.230Z,14.30
2022-12-08T15:02:19.450Z,17.75
2022-12-08T15:05:21.832Z,21.02
2022-12-08T15:08:24.186Z,20.95
2022-12-08T15:11:31.605Z,22.92
2022-12-08T15:14:36.341Z,18.38
2022-12-08T15:17:57.422Z,19.00
2022-12-08T15:21:05.124Z,19.65
2022-12-08T15:24:10.556Z,16.13
2022-12-08T15:27:18.932Z,22.25
2022-12-08T15:30:20.746Z,18.48
2022-12-08T15:33:22.361Z,17.17
2022-12-08T15:36:23.963Z,16.00
2022-12-08T15:39:32.866Z,16.65
2022-12-08T15:42:34.399Z,27.45
2022-12-08T15:45:36.071Z,31.60
2022-12-08T15:48:37.820Z,36.88
2022-12-08T15:51:39.337Z,53.28
2022-12-08T15:54:41.049Z,29.60
2022-12-08T16:01:10.411Z,23.58
2022-12-08T16:07:38.270Z,22.75
2022-12-08T16:11:24.119Z,27.92
2022-12-08T16:14:47.162Z,43.00
2022-12-08T16:17:26.574Z,33.28
2022-12-08T16:20:44.053Z,29.13
2022-12-08T16:23:49.762Z,24.17
2022-12-08T16:30:17.503Z,26.48
2022-12-08T16:33:19.341Z,27.80
2022-12-08T16:36:21.053Z,26.63
2022-12-08T16:39:22.615Z,23.77
2022-12-08T16:42:45.760Z,32.17
2022-12-08T16:45:47.411Z,32.13
2022-12-08T16:48:49.496Z,30.40
2022-12-08T16:51:50.969Z,26.98
2022-12-08T16:54:52.570Z,26.17
2022-12-08T16:57:54.932Z,26.38
2022-12-08T17:00:56.497Z,30.10
2022-12-08T17:04:29.681Z,25.20
2022-12-08T17:07:20.011Z,27.10
2022-12-08T17:10:25.069Z,40.40
2022-12-08T17:13:26.683Z,41.55
2022-12-08T17:16:28.258Z,39.17
2022-12-08T17:19:29.809Z,44.53
2022-12-08T17:22:32.367Z,42.42
2022-12-08T17:25:33.932Z,40.63
2022-12-08T17:28:59.584Z,36.00
2022-12-08T17:31:57.738Z,32.15
2022-12-08T17:34:59.378Z,34.90
2022-12-08T17:38:00.903Z,38.50
2022-12-08T17:41:04.961Z,32.75
2022-12-08T17:47:15.745Z,40.58
2022-12-08T17:50:20.435Z,32.28
2022-12-08T17:53:22.879Z,30.30
2022-12-08T17:56:24.418Z,34.63
2022-12-08T17:59:27.933Z,28.98
2022-12-08T18:02:30.981Z,28.52
2022-12-08T18:05:35.198Z,34.00
2022-12-08T18:08:37.628Z,28.25
2022-12-08T18:11:39.236Z,24.33
2022-12-08T18:14:40.848Z,26.02
2022-12-08T18:17:42.446Z,28.77
2022-12-08T18:20:44.028Z,25.52
2022-12-08T18:23:46.130Z,26.65
2022-12-08T18:26:48.271Z,29.23
2022-12-08T18:29:49.798Z,29.50
2022-12-08T18:32:57.083Z,32.03
2022-12-08T18:35:58.842Z,35.20
2022-12-08T18:39:01.070Z,33.22
2022-12-08T18:42:22.888Z,25.73
2022-12-08T18:45:24.644Z,26.83
2022-12-08T18:48:26.128Z,28.98
2022-12-08T18:51:27.963Z,31.75
2022-12-08T18:54:57.742Z,34.67
2022-12-08T18:57:51.171Z,32.72
2022-12-08T19:00:52.765Z,37.20
2022-12-08T19:04:20.102Z,33.47
2022-12-08T19:07:19.926Z,31.05
2022-12-08T19:10:21.489Z,27.83
2022-12-08T19:13:23.217Z,28.73
2022-12-08T19:16:25.085Z,29.80
2022-12-08T19:19:27.908Z,29.73
2022-12-08T19:22:29.378Z,28.08
2022-12-08T19:25:30.943Z,25.88
2022-12-08T19:28:33.694Z,23.38
2022-12-08T19:31:35.496Z,21.23
2022-12-08T19:34:37.162Z,25.33
2022-12-08T19:37:38.844Z,23.73
2022-12-08T19:41:02.826Z,26.33
2022-12-08T19:44:16.625Z,32.92
2022-12-08T19:47:18.773Z,25.20
2022-12-08T19:50:39.165Z,29.23
2022-12-08T19:53:47.297Z,31.73
2022-12-08T19:56:49.434Z,26.65
2022-12-08T19:59:56.191Z,25.73
2022-12-08T20:02:59.740Z,24.15
2022-12-08T20:06:01.289Z,28.02
2022-12-08T20:09:02.954Z,33.90
2022-12-08T20:12:04.947Z,26.65
2022-12-08T20:15:08.597Z,32.03
2022-12-08T20:18:11.608Z,24.08
2022-12-08T20:21:13.227Z,26.60
2022-12-08T20:24:16.618Z,20.00
2022-12-08T20:27:18.196Z,21.45
2022-12-08T20:30:19.811Z,23.00
2022-12-08T20:33:21.374Z,19.42
2022-12-08T20:36:24.341Z,24.05
2022-12-08T20:39:26.087Z,24.38
2022-12-08T20:42:27.612Z,23.15
2022-12-08T20:45:29.157Z,25.98
2022-12-08T20:48:30.775Z,26.98
2022-12-08T20:51:33.585Z,29.17
2022-12-08T20:54:35.714Z,27.17
2022-12-08T20:57:37.376Z,39.63
2022-12-08T21:00:39.071Z,25.05
2022-12-08T21:03:41.417Z,24.48
2022-12-08T21:06:43.187Z,24.77
2022-12-08T21:09:45.010Z,23.73
2022-12-08T21:12:46.639Z,30.23
2022-12-08T21:15:54.998Z,22.40
2022-12-08T21:18:59.197Z,25.60
2022-12-08T21:22:00.939Z,26.15
2022-12-08T21:25:03.269Z,23.95
2022-12-08T21:28:04.982Z,21.00
2022-12-08T21:31:09.011Z,23.65
2022-12-08T21:37:12.668Z,24.88
2022-12-08T21:40:14.426Z,20.35
2022-12-08T21:43:15.961Z,19.25
2022-12-08T21:46:20.749Z,20.23
2022-12-08T21:49:22.388Z,19.02
2022-12-08T21:52:23.967Z,18.58
2022-12-08T21:55:25.576Z,23.40
2022-12-08T21:58:28.211Z,22.10
2022-12-08T22:01:30.059Z,20.27
2022-12-08T22:04:31.707Z,25.73
2022-12-08T22:07:33.338Z,33.38
2022-12-08T22:10:34.919Z,22.85
2022-12-08T22:13:39.444Z,40.42
2022-12-08T22:16:41.449Z,40.10
2022-12-08T22:19:43.301Z,39.13
2022-12-08T22:22:45.587Z,32.35
2022-12-08T22:26:00.914Z,26.40
2022-12-08T22:29:02.502Z,31.73
2022-12-08T22:32:04.232Z,35.35
2022-12-08T22:35:06.071Z,25.00
2022-12-08T22:38:07.581Z,30.73
2022-12-08T22:41:09.085Z,31.30
2022-12-08T22:44:12.555Z,33.47
2022-12-08T22:47:14.195Z,35.22
2022-12-08T22:50:15.729Z,31.67
2022-12-08T22:53:17.338Z,31.23
2022-12-08T22:56:19.894Z,27.50
2022-12-08T22:59:21.444Z,21.08
2022-12-08T23:02:23.007Z,21.98
2022-12-08T23:05:24.751Z,25.15
2022-12-08T23:08:26.581Z,24.63
2022-12-08T23:11:30.348Z,29.48
2022-12-08T23:14:31.965Z,33.65
2022-12-08T23:17:33.851Z,28.70
2022-12-08T23:20:35.701Z,27.15
2022-12-08T23:23:38.156Z,34.65
2022-12-08T23:26:39.907Z,26.38
2022-12-08T23:29:41.413Z,22.20
2022-12-08T23:32:43.042Z,24.38
2022-12-08T23:35:44.798Z,18.15
2022-12-08T23:38:47.290Z,21.17
2022-12-08T23:41:48.848Z,24.80
2022-12-08T23:44:50.423Z,21.40
2022-12-08T23:47:52.000Z,21.83
2022-12-08T23:50:53.855Z,24.88
2022-12-08T23:53:55.688Z,23.50
2022-12-08T23:56:57.379Z,23.63
2022-12-08T23:59:58.930Z,21.42
